Time;durP1;ratioP1;P1;durP2;ratioP2;P2;SDS_P1;SDS_P2;PMS_P1;PMS_P2;Temp;Humidity;BMP_temperature;BMP_pressure;BME280_temperature;BME280_humidity;BME280_pressure;Samples;Min_cycle;Max_cycle;Signal;HPM_P1;HPM_P2
2022/05/26 00:02:12;;;;;;;0.43;0.43;;;14.90;99.90;;;;;;5062848;28;20210;-63
2022/05/26 00:04:39;;;;;;;0.45;0.45;;;14.80;99.90;;;;;;5061755;28;20726;-62
2022/05/26 00:07:07;;;;;;;0.30;0.30;;;14.80;99.90;;;;;;5066319;28;20285;-61
2022/05/26 00:09:34;;;;;;;0.60;0.60;;;14.80;99.90;;;;;;5057670;28;20223;-62
2022/05/26 00:12:01;;;;;;;0.57;0.57;;;14.80;99.90;;;;;;5060468;28;20302;-61
2022/05/26 00:14:30;;;;;;;0.40;0.40;;;14.80;99.90;;;;;;5055297;28;20214;-61
2022/05/26 00:16:58;;;;;;;0.47;0.47;;;14.80;99.90;;;;;;5066414;28;20203;-61
2022/05/26 00:19:25;;;;;;;0.50;0.50;;;14.80;99.90;;;;;;5063234;28;20215;-60
2022/05/26 00:21:52;;;;;;;0.57;0.57;;;14.80;99.90;;;;;;5070206;28;20226;-61
2022/05/26 00:24:21;;;;;;;0.50;0.50;;;14.80;99.90;;;;;;5066434;28;20268;-66
2022/05/26 00:26:48;;;;;;;0.40;0.40;;;14.70;99.90;;;;;;5063901;28;21866;-62
2022/05/26 00:29:15;;;;;;;0.50;0.50;;;14.70;99.90;;;;;;5068613;28;20223;-62
2022/05/26 00:31:44;;;;;;;0.50;0.50;;;14.70;99.90;;;;;;5078741;22;20243;-67
2022/05/26 00:34:11;;;;;;;0.50;0.50;;;14.60;99.90;;;;;;5072948;28;20286;-66
2022/05/26 00:36:42;;;;;;;0.50;0.50;;;14.60;99.90;;;;;;5070180;28;20751;-67
2022/05/26 00:39:13;;;;;;;0.43;0.43;;;14.60;99.90;;;;;;5075398;28;20203;-66
2022/05/26 00:41:42;;;;;;;0.57;0.57;;;14.60;99.90;;;;;;5075450;28;20244;-66
2022/05/26 00:44:09;;;;;;;0.50;0.50;;;14.50;99.90;;;;;;5076406;28;20230;-66
2022/05/26 00:46:41;;;;;;;0.57;0.50;;;14.40;99.90;;;;;;5076237;28;20238;-66
2022/05/26 00:49:17;;;;;;;0.60;0.60;;;14.30;99.90;;;;;;5079054;28;20210;-65
2022/05/26 00:51:46;;;;;;;0.50;0.50;;;14.20;99.90;;;;;;5077101;28;20246;-65
2022/05/26 00:54:18;;;;;;;0.40;0.40;;;14.00;99.90;;;;;;5078524;28;20281;-66
2022/05/26 00:56:49;;;;;;;0.40;0.40;;;14.00;99.90;;;;;;5072155;28;20729;-66
2022/05/26 00:59:23;;;;;;;0.47;0.47;;;14.00;99.90;;;;;;5073205;28;20274;-65
2022/05/26 01:01:50;;;;;;;0.50;0.50;;;14.00;99.90;;;;;;5074092;28;20231;-66
2022/05/26 01:04:21;;;;;;;0.50;0.50;;;14.00;99.90;;;;;;5072827;28;20206;-67
2022/05/26 01:06:51;;;;;;;0.50;0.50;;;13.90;99.90;;;;;;5074224;28;20206;-66
2022/05/26 01:09:20;;;;;;;0.63;0.63;;;13.90;99.90;;;;;;5073212;28;20234;-66
2022/05/26 01:11:47;;;;;;;0.40;0.40;;;13.90;99.90;;;;;;5073683;28;20219;-66
2022/05/26 01:14:19;;;;;;;0.60;0.60;;;13.90;99.90;;;;;;5074072;28;20222;-67
2022/05/26 01:17:01;;;;;;;0.30;0.30;;;13.80;99.90;;;;;;5074488;28;20294;-66
2022/05/26 01:20:08;;;;;;;0.43;0.43;;;13.90;99.90;;;;;;5075383;28;20617;-66
2022/05/26 01:22:57;;;;;;;0.30;0.30;;;13.90;99.90;;;;;;5070358;28;20333;-65
2022/05/26 01:26:03;;;;;;;0.43;0.43;;;13.90;99.90;;;;;;5074255;28;20286;-67
2022/05/26 01:28:46;;;;;;;0.73;0.60;;;13.80;99.90;;;;;;5059379;28;20297;-66
2022/05/26 01:31:31;;;;;;;0.50;0.50;;;13.80;99.90;;;;;;5072281;28;20285;-66
2022/05/26 01:34:06;;;;;;;0.37;0.37;;;13.90;99.90;;;;;;5074374;28;20278;-66
2022/05/26 01:36:41;;;;;;;0.45;0.45;;;13.80;99.90;;;;;;5072410;28;20291;-67
2022/05/26 01:39:16;;;;;;;0.47;0.47;;;13.90;99.90;;;;;;5076559;28;20681;-66
2022/05/26 01:42:09;;;;;;;0.23;0.23;;;13.90;99.90;;;;;;5072483;28;20318;-66
2022/05/26 01:44:53;;;;;;;0.50;0.50;;;13.90;99.90;;;;;;5070432;28;20578;-66
2022/05/26 01:47:34;;;;;;;0.60;0.60;;;13.90;99.90;;;;;;5070405;28;20209;-66
2022/05/26 01:50:08;;;;;;;0.50;0.50;;;13.90;99.90;;;;;;5076397;28;20705;-66
2022/05/26 01:52:41;;;;;;;0.50;0.50;;;13.90;99.90;;;;;;5072569;28;20257;-67
2022/05/26 01:55:14;;;;;;;1.40;0.57;;;13.80;99.90;;;;;;5075974;28;20210;-66
2022/05/26 01:57:47;;;;;;;0.40;0.40;;;13.80;99.90;;;;;;5075425;28;20570;-65
2022/05/26 02:00:16;;;;;;;1.03;0.70;;;13.70;99.90;;;;;;5075707;28;20227;-66
2022/05/26 02:02:50;;;;;;;0.50;0.50;;;13.70;99.90;;;;;;5086689;28;20280;-66
2022/05/26 02:05:21;;;;;;;0.40;0.40;;;13.70;99.90;;;;;;5095826;28;20230;-66
2022/05/26 02:07:52;;;;;;;0.55;0.55;;;13.70;99.90;;;;;;5094947;28;20198;-66
2022/05/26 02:10:23;;;;;;;0.53;0.53;;;13.60;99.90;;;;;;5095481;28;20276;-66
2022/05/26 02:12:55;;;;;;;0.63;0.63;;;13.60;99.90;;;;;;5095479;28;20326;-66
2022/05/26 02:15:27;;;;;;;0.40;0.40;;;13.70;99.90;;;;;;5096304;28;20198;-66
2022/05/26 02:18:03;;;;;;;0.63;0.63;;;13.70;99.90;;;;;;5096948;28;20206;-66
2022/05/26 02:20:36;;;;;;;0.60;0.60;;;13.70;99.90;;;;;;5097764;28;20674;-65
2022/05/26 02:23:07;;;;;;;0.70;0.70;;;13.70;99.90;;;;;;5097958;28;20227;-65
2022/05/26 02:25:35;;;;;;;0.50;0.50;;;13.90;99.90;;;;;;5107371;28;20241;-66
2022/05/26 02:28:02;;;;;;;0.30;0.30;;;13.70;99.90;;;;;;5109945;28;20266;-67
2022/05/26 02:30:33;;;;;;;0.40;0.40;;;13.80;99.90;;;;;;5107907;28;20223;-67
2022/05/26 02:33:05;;;;;;;0.32;0.32;;;13.90;99.90;;;;;;5096318;28;20219;-66
2022/05/26 02:35:34;;;;;;;0.50;0.50;;;13.90;99.90;;;;;;5095879;28;20191;-66
2022/05/26 02:38:05;;;;;;;0.50;0.50;;;13.90;99.90;;;;;;5094809;28;20330;-67
2022/05/26 02:40:32;;;;;;;0.70;0.70;;;14.00;99.90;;;;;;5074170;28;20195;-66
2022/05/26 02:43:02;;;;;;;0.45;0.45;;;13.90;99.90;;;;;;5082330;28;20254;-66
2022/05/26 02:45:41;;;;;;;0.47;0.47;;;14.00;99.90;;;;;;5075777;28;20302;-66
2022/05/26 02:48:20;;;;;;;0.50;0.50;;;14.20;99.90;;;;;;5074982;28;20302;-65
2022/05/26 02:50:57;;;;;;;0.40;0.40;;;14.00;99.90;;;;;;5078401;28;20258;-65
2022/05/26 02:53:35;;;;;;;0.47;0.47;;;14.00;99.90;;;;;;5074225;28;20306;-66
2022/05/26 02:56:11;;;;;;;0.40;0.40;;;14.10;99.90;;;;;;5074987;28;20203;-66
2022/05/26 02:58:49;;;;;;;0.67;0.67;;;14.10;99.90;;;;;;5074277;28;20203;-67
2022/05/26 03:01:23;;;;;;;0.40;0.40;;;14.00;99.90;;;;;;5074876;28;20246;-67
2022/05/26 03:03:55;;;;;;;0.50;0.50;;;14.10;99.90;;;;;;5073762;28;20251;-66
2022/05/26 03:06:27;;;;;;;0.85;0.57;;;14.10;99.90;;;;;;5074638;28;20208;-66
2022/05/26 03:08:56;;;;;;;0.60;0.60;;;14.20;99.90;;;;;;5073813;28;20306;-66
2022/05/26 03:11:26;;;;;;;0.57;0.57;;;14.10;99.90;;;;;;5074425;28;20286;-67
2022/05/26 03:13:54;;;;;;;0.30;0.30;;;14.00;99.90;;;;;;5073708;28;20207;-66
2022/05/26 03:16:21;;;;;;;0.40;0.40;;;14.00;99.90;;;;;;5075965;28;20213;-67
2022/05/26 03:18:48;;;;;;;0.47;0.47;;;14.00;99.90;;;;;;5074932;28;20235;-66
2022/05/26 03:21:17;;;;;;;0.40;0.40;;;14.00;99.90;;;;;;5074625;28;20566;-65
2022/05/26 03:23:44;;;;;;;0.57;0.57;;;13.90;99.90;;;;;;5073429;28;20234;-66
2022/05/26 03:26:11;;;;;;;0.50;0.50;;;13.90;99.90;;;;;;5074076;28;20298;-66
2022/05/26 03:28:38;;;;;;;0.50;0.50;;;14.00;99.90;;;;;;5073577;28;20235;-66
2022/05/26 03:31:08;;;;;;;0.50;0.50;;;14.00;99.90;;;;;;5073819;28;20313;-67
2022/05/26 03:41:46;;;;;;;0.50;0.50;;;13.90;99.90;;;;;;5067868;28;20261;-66
2022/05/26 03:44:13;;;;;;;0.60;0.60;;;13.80;99.90;;;;;;5085069;28;20623;-66
2022/05/26 03:46:40;;;;;;;0.50;0.50;;;13.70;99.90;;;;;;5093527;28;20206;-67
2022/05/26 03:49:07;;;;;;;0.55;0.55;;;13.70;99.90;;;;;;5093892;28;20294;-65
2022/05/26 03:51:36;;;;;;;0.47;0.47;;;13.70;99.90;;;;;;5094335;28;20222;-65
2022/05/26 03:54:02;;;;;;;0.70;0.70;;;13.70;99.90;;;;;;5094623;28;20218;-67
2022/05/26 03:56:29;;;;;;;0.68;0.68;;;13.70;99.90;;;;;;5109011;28;20211;-68
2022/05/26 03:58:56;;;;;;;0.57;0.57;;;13.60;99.90;;;;;;5100683;28;20273;-67
2022/05/26 04:01:23;;;;;;;0.50;0.50;;;13.60;99.90;;;;;;5114582;28;20237;-66
2022/05/26 04:03:50;;;;;;;0.60;0.60;;;13.60;99.90;;;;;;5079711;28;20240;-66
2022/05/26 04:06:17;;;;;;;0.50;0.50;;;13.60;99.90;;;;;;5083235;28;20669;-65
2022/05/26 04:08:46;;;;;;;0.50;0.50;;;13.60;99.90;;;;;;5077300;28;20302;-65
2022/05/26 04:11:13;;;;;;;0.70;0.70;;;13.60;99.90;;;;;;5077463;28;20788;-65
2022/05/26 04:13:40;;;;;;;0.60;0.60;;;13.60;99.90;;;;;;5073544;28;20231;-66
2022/05/26 04:16:07;;;;;;;0.60;0.60;;;13.50;99.90;;;;;;5082704;28;20250;-65
2022/05/26 04:18:35;;;;;;;0.80;0.80;;;13.60;99.90;;;;;;5074058;28;20243;-67
2022/05/26 04:21:07;;;;;;;0.60;0.60;;;13.60;99.90;;;;;;5072962;28;20199;-65
2022/05/26 04:23:34;;;;;;;0.67;0.67;;;13.60;99.90;;;;;;5072848;28;20290;-65
2022/05/26 04:26:03;;;;;;;0.70;0.70;;;13.50;99.90;;;;;;5073743;28;20295;-65
2022/05/26 04:28:30;;;;;;;0.60;0.60;;;13.50;99.90;;;;;;5073609;28;20669;-65
2022/05/26 04:30:57;;;;;;;0.73;0.73;;;13.50;99.90;;;;;;5073708;28;20258;-65
2022/05/26 04:33:25;;;;;;;0.70;0.70;;;13.50;99.90;;;;;;5072935;28;20237;-66
2022/05/26 04:35:53;;;;;;;0.60;0.60;;;13.50;99.90;;;;;;5073678;28;20203;-65
2022/05/26 04:38:20;;;;;;;0.50;0.50;;;13.50;99.90;;;;;;5073614;28;20282;-65
2022/05/26 04:40:55;;;;;;;0.70;0.70;;;13.50;99.90;;;;;;5074082;28;20227;-66
2022/05/26 04:43:24;;;;;;;0.70;0.70;;;13.60;99.90;;;;;;5078542;28;20258;-66
2022/05/26 04:45:51;;;;;;;1.23;0.50;;;13.50;99.90;;;;;;5078590;28;20239;-65
2022/05/26 04:48:21;;;;;;;0.70;0.70;;;13.50;99.90;;;;;;5076822;28;20260;-66
2022/05/26 04:50:48;;;;;;;0.70;0.70;;;13.40;99.90;;;;;;5076053;28;20239;-64
2022/05/26 04:53:15;;;;;;;0.70;0.70;;;13.50;99.90;;;;;;5075832;28;20230;-66
2022/05/26 04:55:42;;;;;;;0.60;0.60;;;13.50;99.90;;;;;;5077332;28;20208;-65
2022/05/26 04:58:09;;;;;;;0.60;0.60;;;13.50;99.90;;;;;;5077259;28;20209;-66
2022/05/26 05:00:37;;;;;;;0.53;0.53;;;13.50;99.90;;;;;;5078579;28;20234;-66
2022/05/26 05:03:04;;;;;;;0.55;0.55;;;13.60;99.90;;;;;;5080202;28;20223;-66
2022/05/26 05:05:32;;;;;;;0.60;0.60;;;13.70;99.90;;;;;;5083468;28;20290;-66
2022/05/26 05:07:58;;;;;;;0.70;0.70;;;13.80;99.90;;;;;;5084999;28;20231;-66
2022/05/26 05:10:25;;;;;;;0.60;0.60;;;14.00;99.90;;;;;;5087135;28;20264;-66
2022/05/26 05:12:56;;;;;;;0.50;0.50;;;14.10;99.90;;;;;;5094436;28;20204;-67
2022/05/26 05:15:29;;;;;;;0.70;0.70;;;14.40;99.90;;;;;;5095624;28;20229;-66
2022/05/26 05:17:58;;;;;;;0.70;0.70;;;14.50;99.90;;;;;;5094738;28;20214;-66
2022/05/26 05:20:25;;;;;;;0.70;0.70;;;14.60;99.90;;;;;;5090606;28;20180;-65
2022/05/26 05:22:57;;;;;;;0.80;0.80;;;14.60;99.90;;;;;;5083329;28;20227;-64
2022/05/26 05:25:28;;;;;;;0.70;0.70;;;14.70;99.90;;;;;;5080835;28;20229;-66
2022/05/26 05:27:59;;;;;;;0.60;0.60;;;14.90;99.90;;;;;;5076199;28;20207;-64
2022/05/26 05:30:30;;;;;;;0.53;0.53;;;15.10;99.90;;;;;;5073547;28;20692;-65
2022/05/26 05:33:05;;;;;;;0.60;0.60;;;15.40;99.90;;;;;;5073110;28;20280;-65
2022/05/26 05:35:39;;;;;;;0.52;0.52;;;15.40;99.90;;;;;;5078927;28;20818;-65
2022/05/26 05:38:06;;;;;;;0.50;0.50;;;15.40;99.90;;;;;;5078633;28;20267;-65
2022/05/26 05:40:33;;;;;;;0.68;0.68;;;15.50;99.90;;;;;;5077809;28;20252;-65
2022/05/26 05:43:00;;;;;;;0.70;0.70;;;15.50;99.90;;;;;;5079009;28;20229;-66
2022/05/26 05:45:27;;;;;;;0.40;0.40;;;15.60;99.90;;;;;;5079268;28;20227;-65
2022/05/26 05:47:54;;;;;;;0.50;0.50;;;15.60;99.90;;;;;;5077268;28;20202;-68
2022/05/26 05:50:22;;;;;;;1.45;0.60;;;15.60;99.90;;;;;;5076960;28;20259;-65
2022/05/26 05:52:49;;;;;;;0.60;0.60;;;15.70;99.90;;;;;;5075815;28;20223;-66
2022/05/26 05:55:16;;;;;;;0.52;0.52;;;16.00;99.90;;;;;;5077370;28;20293;-65
2022/05/26 05:57:43;;;;;;;0.60;0.60;;;16.30;99.90;;;;;;5076777;28;20242;-65
2022/05/26 06:00:10;;;;;;;0.87;0.73;;;16.50;99.90;;;;;;5078524;28;20196;-66
2022/05/26 06:02:37;;;;;;;0.65;0.65;;;16.50;99.90;;;;;;5079941;28;20251;-65
2022/05/26 06:05:06;;;;;;;0.60;0.60;;;16.60;99.90;;;;;;5076064;28;20213;-65
2022/05/26 06:07:37;;;;;;;0.60;0.60;;;16.70;99.90;;;;;;5074260;28;20211;-65
2022/05/26 06:10:06;;;;;;;0.60;0.60;;;16.70;99.90;;;;;;5075486;28;20290;-65
2022/05/26 06:12:32;;;;;;;0.60;0.60;;;16.80;99.90;;;;;;5075125;28;20689;-65
2022/05/26 06:14:59;;;;;;;0.50;0.50;;;16.80;99.90;;;;;;5075568;28;20298;-65
2022/05/26 06:17:26;;;;;;;0.57;0.57;;;16.80;99.90;;;;;;5075424;28;20677;-66
2022/05/26 06:19:53;;;;;;;0.47;0.47;;;16.80;99.90;;;;;;5075531;28;20242;-66
2022/05/26 06:22:22;;;;;;;0.50;0.50;;;16.80;99.90;;;;;;5075112;28;20223;-65
2022/05/26 06:24:51;;;;;;;0.45;0.45;;;16.80;99.90;;;;;;5075629;28;20263;-65
2022/05/26 06:30:07;;;;;;;0.32;0.32;;;17.20;99.90;;;;;;5076597;28;20183;-66
2022/05/26 06:38:11;;;;;;;0.25;0.25;;;17.50;99.90;;;;;;5075293;28;20560;-65
2022/05/26 06:40:39;;;;;;;0.50;0.50;;;17.60;99.90;;;;;;5082175;28;20202;-65
2022/05/26 06:43:06;;;;;;;0.40;0.40;;;17.70;99.90;;;;;;5083973;28;20315;-66
2022/05/26 06:45:33;;;;;;;0.60;0.60;;;17.70;99.90;;;;;;5083823;28;20192;-66
2022/05/26 06:48:00;;;;;;;0.30;0.30;;;17.80;99.90;;;;;;5065737;28;20208;-66
2022/05/26 06:50:27;;;;;;;0.68;0.60;;;17.90;99.90;;;;;;5076630;28;20215;-66
2022/05/26 06:52:54;;;;;;;0.60;0.60;;;18.00;99.90;;;;;;5074937;28;20223;-66
2022/05/26 06:55:21;;;;;;;0.30;0.30;;;18.00;99.90;;;;;;5075736;28;20203;-64
2022/05/26 06:57:49;;;;;;;0.25;0.25;;;18.10;99.90;;;;;;5076365;28;20294;-66
2022/05/26 07:00:18;;;;;;;0.50;0.50;;;18.10;99.90;;;;;;5074692;28;20632;-65
2022/05/26 07:02:45;;;;;;;0.50;0.50;;;18.20;99.90;;;;;;5076784;28;20229;-65
2022/05/26 07:05:13;;;;;;;0.73;0.40;;;18.30;99.90;;;;;;5079508;28;20287;-67
2022/05/26 07:07:40;;;;;;;0.43;0.43;;;18.40;99.90;;;;;;5083643;28;20294;-65
2022/05/26 07:10:09;;;;;;;0.47;0.47;;;18.30;99.90;;;;;;5081006;28;20239;-66
2022/05/26 07:12:36;;;;;;;0.80;0.67;;;18.50;99.90;;;;;;5078840;28;20310;-65
2022/05/26 07:15:08;;;;;;;0.60;0.60;;;18.50;99.90;;;;;;5062679;28;20262;-65
2022/05/26 07:17:35;;;;;;;0.40;0.40;;;18.60;99.90;;;;;;5093049;28;20199;-65
2022/05/26 07:20:02;;;;;;;0.60;0.60;;;18.60;99.90;;;;;;5076063;28;20188;-66
2022/05/26 07:22:31;;;;;;;0.37;0.37;;;18.70;99.90;;;;;;5092323;28;20300;-65
2022/05/26 07:24:58;;;;;;;0.63;0.63;;;18.70;99.90;;;;;;5093720;28;20200;-65
2022/05/26 07:27:25;;;;;;;1.13;0.80;;;18.70;99.90;;;;;;5092365;28;20234;-64
2022/05/26 07:29:52;;;;;;;0.60;0.60;;;18.80;99.90;;;;;;5097080;28;20199;-65
2022/05/26 07:32:20;;;;;;;0.40;0.40;;;18.70;99.90;;;;;;5081799;28;20657;-65
2022/05/26 07:34:47;;;;;;;0.73;0.73;;;18.80;99.90;;;;;;5101288;28;20727;-66
2022/05/26 07:42:43;;;;;;;0.40;0.40;;;18.90;99.90;;;;;;5057634;28;20270;-65
2022/05/26 07:45:11;;;;;;;1.02;0.57;;;19.00;99.90;;;;;;5070141;28;20267;-66
2022/05/26 07:47:39;;;;;;;0.57;0.55;;;18.90;99.90;;;;;;5081507;28;20283;-65
2022/05/26 07:50:11;;;;;;;0.50;0.50;;;18.90;99.90;;;;;;5080097;28;20232;-65
2022/05/26 07:52:38;;;;;;;0.40;0.40;;;18.90;99.90;;;;;;5074129;28;20284;-65
2022/05/26 07:55:06;;;;;;;0.35;0.35;;;18.90;99.90;;;;;;5083094;28;20207;-64
2022/05/26 07:57:33;;;;;;;0.60;0.60;;;18.90;99.90;;;;;;5079262;28;20210;-66
2022/05/26 08:00:00;;;;;;;0.50;0.50;;;18.90;99.90;;;;;;5077275;28;20299;-66
2022/05/26 08:02:27;;;;;;;0.90;0.75;;;19.10;99.90;;;;;;5081556;28;20310;-65
2022/05/26 08:04:56;;;;;;;0.70;0.70;;;19.00;99.90;;;;;;5076480;28;20248;-67
2022/05/26 08:07:23;;;;;;;0.65;0.65;;;19.00;99.90;;;;;;5080382;28;20238;-65
2022/05/26 08:09:50;;;;;;;0.80;0.80;;;19.00;99.90;;;;;;5075445;28;20227;-67
2022/05/26 08:12:17;;;;;;;0.60;0.60;;;19.10;99.90;;;;;;5081816;28;20241;-66
2022/05/26 08:14:45;;;;;;;0.50;0.50;;;19.10;99.90;;;;;;5080013;28;20294;-64
2022/05/26 08:17:13;;;;;;;0.50;0.50;;;19.10;99.90;;;;;;5081330;28;20264;-66
2022/05/26 08:19:40;;;;;;;0.30;0.30;;;19.20;99.90;;;;;;5081868;28;20211;-65
2022/05/26 08:22:08;;;;;;;0.40;0.40;;;19.20;99.90;;;;;;5078204;28;20273;-66
2022/05/26 08:24:36;;;;;;;0.75;0.75;;;19.20;99.90;;;;;;5073547;28;20393;-65
2022/05/26 08:27:03;;;;;;;0.50;0.50;;;19.30;99.90;;;;;;5072521;28;20238;-67
2022/05/26 08:29:30;;;;;;;0.47;0.47;;;19.30;99.90;;;;;;5073560;28;20295;-66
2022/05/26 08:31:57;;;;;;;0.80;0.80;;;19.40;99.90;;;;;;5076210;28;20310;-65
2022/05/26 08:34:24;;;;;;;0.63;0.63;;;19.40;99.90;;;;;;5077161;28;20215;-66
2022/05/26 08:36:51;;;;;;;0.60;0.60;;;19.50;99.90;;;;;;5077856;28;20196;-66
2022/05/26 08:39:19;;;;;;;0.52;0.52;;;19.70;99.90;;;;;;5079031;28;20237;-67
2022/05/26 08:41:50;;;;;;;0.50;0.50;;;19.80;99.90;;;;;;5076036;28;20294;-65
2022/05/26 08:44:26;;;;;;;0.60;0.60;;;19.80;99.90;;;;;;5074034;28;20195;-65
2022/05/26 08:47:01;;;;;;;0.90;0.90;;;19.70;99.90;;;;;;5072054;28;20700;-65
2022/05/26 08:49:36;;;;;;;2.53;0.68;;;19.70;99.90;;;;;;5075562;28;20225;-66
2022/05/26 08:52:09;;;;;;;0.60;0.60;;;19.70;99.90;;;;;;5078257;28;20261;-66
2022/05/26 08:54:42;;;;;;;0.73;0.65;;;19.80;99.90;;;;;;5070635;28;20272;-65
2022/05/26 08:57:13;;;;;;;0.82;0.50;;;19.80;99.90;;;;;;5071081;28;20296;-65
2022/05/26 08:59:44;;;;;;;0.52;0.52;;;19.80;99.90;;;;;;5072852;28;20233;-66
2022/05/26 09:02:24;;;;;;;0.68;0.68;;;20.10;99.90;;;;;;5075745;28;20219;-67
2022/05/26 09:04:51;;;;;;;0.63;0.63;;;20.20;99.90;;;;;;5077639;28;20225;-66
2022/05/26 09:12:59;;;;;;;0.75;0.75;;;20.40;99.90;;;;;;5074063;28;20237;-66
2022/05/26 09:15:27;;;;;;;0.50;0.50;;;20.50;99.90;;;;;;5072344;28;20626;-66
2022/05/26 09:17:54;;;;;;;0.50;0.50;;;20.60;99.90;;;;;;5060195;28;20227;-67
2022/05/26 09:20:35;;;;;;;0.60;0.60;;;20.60;99.90;;;;;;5084656;28;20205;-67
2022/05/26 09:23:11;;;;;;;0.57;0.57;;;20.60;99.90;;;;;;5073086;28;20227;-66
2022/05/26 09:25:45;;;;;;;0.65;0.60;;;20.80;99.90;;;;;;5076827;28;20533;-65
2022/05/26 09:28:12;;;;;;;0.60;0.60;;;20.90;99.90;;;;;;5075846;28;20844;-65
2022/05/26 09:30:40;;;;;;;0.82;0.82;;;21.00;99.90;;;;;;5080463;28;20673;-65
2022/05/26 09:33:21;;;;;;;0.80;0.80;;;21.00;99.90;;;;;;5091610;28;20314;-67
2022/05/26 09:35:48;;;;;;;0.70;0.70;;;21.00;99.90;;;;;;5078485;28;20240;-67
2022/05/26 09:38:20;;;;;;;0.60;0.60;;;21.00;99.90;;;;;;5080681;28;20200;-66
2022/05/26 09:40:48;;;;;;;0.80;0.80;;;21.00;99.90;;;;;;5089666;28;20188;-66
2022/05/26 09:43:25;;;;;;;0.68;0.50;;;20.90;99.90;;;;;;5089982;28;20249;-65
2022/05/26 09:45:55;;;;;;;0.60;0.60;;;20.80;99.90;;;;;;5083185;28;20205;-66
2022/05/26 09:48:27;;;;;;;0.60;0.60;;;20.80;99.90;;;;;;5096213;28;20205;-65
2022/05/26 09:51:04;;;;;;;0.60;0.60;;;20.70;99.90;;;;;;5093359;28;20297;-67
2022/05/26 09:53:34;;;;;;;0.65;0.60;;;20.60;99.90;;;;;;5094863;28;20230;-66
2022/05/26 09:56:02;;;;;;;0.50;0.50;;;20.50;99.90;;;;;;5098977;28;20207;-67
2022/05/26 09:58:34;;;;;;;0.60;0.60;;;20.50;99.90;;;;;;5085483;28;20286;-65
2022/05/26 10:01:02;;;;;;;0.50;0.50;;;20.50;99.90;;;;;;5081943;28;20657;-66
2022/05/26 10:03:46;;;;;;;0.43;0.43;;;20.50;99.90;;;;;;5074902;28;20315;-66
2022/05/26 10:06:25;;;;;;;0.70;0.70;;;20.50;99.90;;;;;;5064548;28;20294;-67
2022/05/26 10:09:06;;;;;;;0.55;0.55;;;20.60;99.90;;;;;;5066376;28;20200;-66
2022/05/26 10:11:49;;;;;;;0.50;0.50;;;20.60;99.90;;;;;;5067591;28;20484;-63
2022/05/26 10:14:35;;;;;;;0.45;0.45;;;20.70;99.90;;;;;;5071757;28;21500;-65
2022/05/26 10:17:10;;;;;;;0.50;0.50;;;20.70;99.90;;;;;;5071280;28;20199;-65
2022/05/26 10:20:01;;;;;;;0.70;0.70;;;20.70;99.90;;;;;;5067370;28;20266;-65
2022/05/26 10:22:38;;;;;;;0.65;0.65;;;20.60;99.90;;;;;;5069650;28;20215;-66
2022/05/26 10:25:15;;;;;;;0.28;0.28;;;20.50;99.90;;;;;;5074107;28;20203;-67
2022/05/26 10:28:00;;;;;;;0.68;0.68;;;20.50;99.90;;;;;;5074751;28;20210;-68
2022/05/26 10:30:39;;;;;;;1.27;0.50;;;20.40;99.90;;;;;;5074497;28;20231;-66
2022/05/26 10:33:42;;;;;;;0.50;0.50;;;20.40;99.90;;;;;;5071145;28;20227;-66
2022/05/26 10:36:20;;;;;;;0.60;0.60;;;20.40;99.90;;;;;;5021299;28;20737;-66
2022/05/26 10:39:06;;;;;;;0.52;0.52;;;20.40;99.90;;;;;;5073449;28;20199;-66
2022/05/26 10:41:37;;;;;;;0.52;0.52;;;20.30;99.90;;;;;;5074617;28;20247;-66
2022/05/26 10:44:17;;;;;;;0.57;0.57;;;20.30;99.90;;;;;;5075811;28;20234;-67
2022/05/26 10:46:51;;;;;;;0.50;0.50;;;20.40;99.90;;;;;;5074521;28;20203;-66
2022/05/26 10:49:23;;;;;;;0.70;0.70;;;20.60;99.90;;;;;;5077798;28;20231;-67
2022/05/26 10:51:56;;;;;;;0.95;0.75;;;20.70;99.90;;;;;;5076900;28;20257;-65
2022/05/26 10:54:36;;;;;;;0.40;0.40;;;20.70;99.90;;;;;;5073962;28;20290;-67
2022/05/26 10:57:10;;;;;;;0.50;0.50;;;20.70;99.90;;;;;;5073587;28;20322;-64
2022/05/26 10:59:42;;;;;;;0.60;0.60;;;20.50;99.90;;;;;;5075077;28;20567;-66
2022/05/26 11:02:16;;;;;;;0.50;0.50;;;20.40;99.90;;;;;;5075153;28;20706;-66
2022/05/26 11:04:49;;;;;;;0.85;0.70;;;20.50;99.90;;;;;;5072281;28;20294;-67
2022/05/26 11:07:22;;;;;;;0.60;0.60;;;20.40;99.90;;;;;;5074485;28;20204;-65
2022/05/26 11:09:53;;;;;;;0.60;0.60;;;20.40;99.90;;;;;;5071688;28;20282;-64
2022/05/26 11:12:29;;;;;;;0.70;0.70;;;20.40;99.90;;;;;;5068361;28;20272;-65
2022/05/26 11:17:52;;;;;;;0.70;0.70;;;20.60;99.90;;;;;;5072462;28;20210;-64
2022/05/26 11:20:21;;;;;;;0.60;0.60;;;20.60;99.90;;;;;;5074596;28;20573;-64
2022/05/26 11:22:51;;;;;;;0.80;0.80;;;20.60;99.90;;;;;;5074494;28;20303;-65
2022/05/26 11:25:24;;;;;;;0.82;0.82;;;20.50;99.90;;;;;;5073133;28;20204;-65
2022/05/26 11:27:54;;;;;;;0.60;0.60;;;20.50;99.90;;;;;;5071856;28;20227;-65
2022/05/26 11:36:12;;;;;;;0.93;0.75;;;20.50;99.90;;;;;;5001015;28;20194;-63
2022/05/26 11:38:44;;;;;;;0.47;0.47;;;20.50;99.90;;;;;;5074548;28;20709;-65
2022/05/26 11:41:15;;;;;;;0.60;0.60;;;20.50;99.90;;;;;;5076381;28;20206;-66
2022/05/26 11:43:45;;;;;;;0.67;0.67;;;20.50;99.90;;;;;;5074289;28;20202;-69
2022/05/26 11:46:56;;;;;;;0.80;0.80;;;20.50;99.90;;;;;;5075845;28;20289;-66
2022/05/26 11:50:08;;;;;;;0.80;0.80;;;20.60;99.90;;;;;;5072713;28;20196;-65
2022/05/26 11:53:02;;;;;;;0.77;0.70;;;20.60;99.90;;;;;;5026669;28;20235;-66
2022/05/26 11:55:33;;;;;;;0.52;0.52;;;20.80;99.90;;;;;;5076649;28;20207;-66
2022/05/26 11:58:18;;;;;;;0.60;0.60;;;21.00;99.90;;;;;;5078271;28;20608;-66
2022/05/26 12:00:46;;;;;;;0.65;0.65;;;21.20;99.90;;;;;;5072709;28;20222;-65
2022/05/26 12:03:32;;;;;;;0.55;0.55;;;21.30;99.90;;;;;;5075168;28;20223;-65
2022/05/26 12:06:12;;;;;;;0.43;0.43;;;21.40;99.90;;;;;;5075554;28;20287;-66
2022/05/26 12:08:43;;;;;;;0.60;0.60;;;21.40;99.90;;;;;;5070274;28;20717;-68
2022/05/26 12:11:12;;;;;;;0.60;0.60;;;21.30;99.90;;;;;;5076080;28;20684;-64
2022/05/26 12:13:42;;;;;;;0.70;0.70;;;21.00;99.90;;;;;;5077826;28;20222;-65
2022/05/26 12:16:28;;;;;;;1.02;0.88;;;21.00;99.90;;;;;;5074321;28;20199;-66
2022/05/26 12:19:00;;;;;;;0.70;0.70;;;21.00;99.90;;;;;;5072651;28;20811;-66
2022/05/26 12:21:44;;;;;;;0.70;0.70;;;21.00;99.90;;;;;;5071861;28;20278;-67
2022/05/26 12:24:48;;;;;;;0.60;0.60;;;21.00;99.90;;;;;;5073926;28;20202;-66
2022/05/26 12:27:15;;;;;;;0.52;0.52;;;21.00;99.90;;;;;;5076995;28;20229;-67
2022/05/26 12:30:00;;;;;;;0.52;0.52;;;21.00;99.90;;;;;;5081019;28;20207;-68
2022/05/26 12:32:31;;;;;;;0.50;0.50;;;21.20;99.90;;;;;;5079318;28;20276;-66
2022/05/26 12:35:09;;;;;;;0.60;0.60;;;21.40;99.90;;;;;;5094715;28;20640;-66
2022/05/26 12:37:48;;;;;;;0.80;0.80;;;21.80;99.90;;;;;;5093523;28;20696;-67
2022/05/26 12:40:37;;;;;;;0.70;0.70;;;22.20;99.90;;;;;;5093146;28;20186;-64
2022/05/26 12:43:46;;;;;;;0.60;0.60;;;22.40;99.90;;;;;;5091358;28;20218;-67
2022/05/26 12:46:43;;;;;;;0.50;0.50;;;22.10;99.90;;;;;;5092468;28;20238;-65
2022/05/26 12:49:32;;;;;;;0.60;0.60;;;22.20;99.90;;;;;;5092948;28;20664;-67
2022/05/26 12:52:13;;;;;;;0.80;0.80;;;21.80;99.90;;;;;;5092390;28;20261;-65
2022/05/26 12:54:50;;;;;;;0.73;0.73;;;21.50;99.90;;;;;;5092313;28;20232;-65
2022/05/26 12:57:22;;;;;;;0.50;0.50;;;21.30;99.90;;;;;;5091442;28;20653;-65
2022/05/26 12:59:49;;;;;;;0.50;0.50;;;21.20;99.90;;;;;;5091854;28;20211;-65
2022/05/26 13:02:16;;;;;;;0.45;0.45;;;21.10;99.90;;;;;;5091755;28;20738;-66
2022/05/26 13:04:45;;;;;;;0.52;0.52;;;21.00;99.90;;;;;;5091781;28;20207;-65
2022/05/26 13:07:16;;;;;;;0.38;0.38;;;21.00;99.90;;;;;;5075998;28;20680;-65
2022/05/26 13:09:46;;;;;;;0.60;0.60;;;21.10;99.90;;;;;;5066376;28;20302;-67
2022/05/26 13:12:20;;;;;;;0.55;0.55;;;21.30;99.90;;;;;;5069191;28;20230;-64
2022/05/26 13:14:51;;;;;;;0.45;0.45;;;21.40;99.90;;;;;;5063173;28;20296;-66
2022/05/26 13:17:22;;;;;;;0.52;0.52;;;21.60;99.90;;;;;;5057924;28;20202;-65
2022/05/26 13:19:52;;;;;;;0.40;0.40;;;21.70;99.90;;;;;;5072553;28;20191;-66
2022/05/26 13:22:27;;;;;;;0.60;0.60;;;21.80;99.90;;;;;;5075105;28;20242;-66
2022/05/26 13:24:56;;;;;;;0.68;0.68;;;22.00;99.90;;;;;;5073587;28;20613;-64
2022/05/26 13:27:24;;;;;;;0.70;0.70;;;22.10;99.90;;;;;;5075732;28;20793;-67
2022/05/26 13:29:53;;;;;;;0.45;0.45;;;22.00;99.90;;;;;;5084097;28;20263;-69
2022/05/26 13:35:18;;;;;;;0.32;0.32;;;21.90;99.90;;;;;;5096570;28;20230;-65
2022/05/26 13:37:46;;;;;;;0.55;0.55;;;21.70;99.90;;;;;;5091595;28;20205;-66
2022/05/26 13:40:17;;;;;;;0.50;0.50;;;21.70;99.90;;;;;;5083820;28;20575;-66
2022/05/26 13:42:46;;;;;;;0.95;0.95;;;21.80;99.90;;;;;;5091613;28;20223;-66
2022/05/26 13:45:22;;;;;;;0.85;0.85;;;21.80;99.90;;;;;;5091910;28;20297;-67
2022/05/26 13:47:49;;;;;;;0.60;0.60;;;21.80;99.90;;;;;;5091749;28;20534;-65
2022/05/26 13:50:26;;;;;;;0.60;0.60;;;22.00;99.90;;;;;;5092361;28;20216;-64
2022/05/26 13:52:56;;;;;;;0.68;0.68;;;22.20;99.90;;;;;;5080302;28;20229;-66